Terminal Aerodrome Forecast
Issued by NWS

Home | Current Version | Previous Version | Text Only | Print | Product List | Glossary On
Versions: 1 2 3 4 5 6 7 8 9 10 11 12 13 14 15 16 17
000
FTUS41 KBTV 270540
TAFSLK
TAF
KSLK 270540Z 2706/2806 23008KT 6SM -SHRA OVC015
     FM271000 23006KT P6SM BKN150 BKN200
     FM271500 23007KT P6SM SCT035 BKN250
     FM271900 24005KT P6SM SCT050 SCT250
     FM272300 VRB03KT P6SM SCT060=

USA.gov is the U.S. government's official web portal to all federal, state and local government web resources and services.